Yaleville, New York
Current Conditions -  °F | °C
As of 9:53 PM on Friday 19 Dec 2014 (Local Time) from KMSS Reporting Station
Clear Clear  
Wind Chill:   Ceiling: Unl
Heat Index: 13°   Visibility: 10mi
Dew Point: 10°   Wind: 6mph
Humidity: 88%   Direction: 220°SW
Pressure: 30.26"   Gusts: NA
Location:  44.7612°N, 74.9585°W
Report Text: KMSS 200253Z AUTO 22005KT 10SM CLR M11/M12 A3026 RMK AO2 SLP257 I1000 I3000 T11061122 53005
Loading
Personal Weather Stations






























Interactive Weather Map New forecast layout! Learn more

10-Day Weather Forecast

Advertisements
Track Severe Weather on mobile